KPCZ

Waupaca Municipal Airport

Waupaca, Wisconsin, USA
METAR KPCZ 170255Z AUTO 27005KT 10SM CLR 08/M01 A2999 RMK AO2 T00771006
Observed Flight Rules
Oct-17 @ 02:55 UTC (14 minutes ago) Visual Flight Rules
Wind Visibility Clouds
270° at 5 knots 10 miles
  • Clear skies
Temperatures Readings
Current 8°C / 46°F
Dewpoint -1°C / 30°F
Humidity 53%
Altimeter 29.99" Hg
Pressure 1016 hPa
Elevation 252
METAR KPCZ 170255Z AUTO 27005KT 10SM CLR 08/M01 A2999 RMK AO2 T00771006
Observed Flight Rules
Oct-17 @ 02:55 UTC
(14 minutes ago)
VFR
Wind Visibility
270° at 5 knots 10 miles
Clouds
  • Clear skies
Temperature Dewpoint
8°C / 46°F -1°C / 30°F
Humidity Altimeter Pressure
53% 29.99" Hg 1016 hPa